sensor_id;sensor_type;location;lat;lon;timestamp;temperature;humidity
16867;DHT22;8550;52.596;13.320;2023-03-13T00:00:50;6.20;99.90
16867;DHT22;8550;52.596;13.320;2023-03-13T00:06:03;6.20;99.90
16867;DHT22;8550;52.596;13.320;2023-03-13T00:11:30;6.30;99.90
16867;DHT22;8550;52.596;13.320;2023-03-13T00:16:32;6.40;99.90
16867;DHT22;8550;52.596;13.320;2023-03-13T00:21:44;6.40;99.90
16867;DHT22;8550;52.596;13.320;2023-03-13T00:26:47;6.50;99.90
16867;DHT22;8550;52.596;13.320;2023-03-13T00:31:53;6.50;99.90
16867;DHT22;8550;52.596;13.320;2023-03-13T00:37:04;6.70;99.90
16867;DHT22;8550;52.596;13.320;2023-03-13T00:42:07;6.80;99.90
16867;DHT22;8550;52.596;13.320;2023-03-13T00:47:10;6.90;99.90
16867;DHT22;8550;52.596;13.320;2023-03-13T00:52:20;6.90;99.90
16867;DHT22;8550;52.596;13.320;2023-03-13T00:57:29;7.00;99.90
16867;DHT22;8550;52.596;13.320;2023-03-13T01:02:31;7.00;99.90
16867;DHT22;8550;52.596;13.320;2023-03-13T01:07:37;7.10;99.90
16867;DHT22;8550;52.596;13.320;2023-03-13T01:12:39;7.20;99.90
16867;DHT22;8550;52.596;13.320;2023-03-13T01:17:42;7.10;99.90
16867;DHT22;8550;52.596;13.320;2023-03-13T01:22:57;7.20;99.90
16867;DHT22;8550;52.596;13.320;2023-03-13T01:27:59;7.20;99.90
16867;DHT22;8550;52.596;13.320;2023-03-13T01:33:01;7.20;99.90
16867;DHT22;8550;52.596;13.320;2023-03-13T01:38:16;7.20;99.90
16867;DHT22;8550;52.596;13.320;2023-03-13T01:43:21;7.20;99.90
16867;DHT22;8550;52.596;13.320;2023-03-13T01:48:28;7.20;99.90
16867;DHT22;8550;52.596;13.320;2023-03-13T01:53:36;7.30;99.90
16867;DHT22;8550;52.596;13.320;2023-03-13T01:58:58;7.20;99.90
16867;DHT22;8550;52.596;13.320;2023-03-13T02:04:00;7.20;99.90
16867;DHT22;8550;52.596;13.320;2023-03-13T02:09:07;7.20;99.90
16867;DHT22;8550;52.596;13.320;2023-03-13T02:14:12;7.40;99.90
16867;DHT22;8550;52.596;13.320;2023-03-13T02:19:18;7.30;99.90
16867;DHT22;8550;52.596;13.320;2023-03-13T02:24:28;7.30;99.90
16867;DHT22;8550;52.596;13.320;2023-03-13T02:29:33;7.30;99.90
16867;DHT22;8550;52.596;13.320;2023-03-13T02:34:38;7.20;99.90
16867;DHT22;8550;52.596;13.320;2023-03-13T02:39:43;7.20;99.90
16867;DHT22;8550;52.596;13.320;2023-03-13T02:44:48;7.20;99.90
16867;DHT22;8550;52.596;13.320;2023-03-13T02:49:50;7.30;99.90
16867;DHT22;8550;52.596;13.320;2023-03-13T02:54:59;7.30;99.90
16867;DHT22;8550;52.596;13.320;2023-03-13T03:00:06;7.30;99.90
16867;DHT22;8550;52.596;13.320;2023-03-13T03:05:12;7.30;99.90
16867;DHT22;8550;52.596;13.320;2023-03-13T03:10:15;7.40;99.90
16867;DHT22;8550;52.596;13.320;2023-03-13T03:15:19;7.40;99.90
16867;DHT22;8550;52.596;13.320;2023-03-13T03:20:22;7.50;99.90
16867;DHT22;8550;52.596;13.320;2023-03-13T03:25:24;7.50;99.90
16867;DHT22;8550;52.596;13.320;2023-03-13T03:30:27;7.40;99.90
16867;DHT22;8550;52.596;13.320;2023-03-13T03:35:29;7.40;99.90
16867;DHT22;8550;52.596;13.320;2023-03-13T03:40:31;7.50;99.90
16867;DHT22;8550;52.596;13.320;2023-03-13T03:45:34;7.50;99.90
16867;DHT22;8550;52.596;13.320;2023-03-13T03:50:37;7.50;99.90
16867;DHT22;8550;52.596;13.320;2023-03-13T03:55:39;7.60;99.90
16867;DHT22;8550;52.596;13.320;2023-03-13T04:00:44;7.50;99.90
16867;DHT22;8550;52.596;13.320;2023-03-13T04:05:46;7.50;99.90
16867;DHT22;8550;52.596;13.320;2023-03-13T04:10:48;7.60;99.90
16867;DHT22;8550;52.596;13.320;2023-03-13T04:15:51;7.60;99.90
16867;DHT22;8550;52.596;13.320;2023-03-13T04:20:59;7.70;99.90
16867;DHT22;8550;52.596;13.320;2023-03-13T04:26:01;7.80;99.90
16867;DHT22;8550;52.596;13.320;2023-03-13T04:31:04;7.80;99.90
16867;DHT22;8550;52.596;13.320;2023-03-13T04:36:07;7.70;99.90
16867;DHT22;8550;52.596;13.320;2023-03-13T04:41:09;7.80;99.90
16867;DHT22;8550;52.596;13.320;2023-03-13T04:46:12;7.80;99.90
16867;DHT22;8550;52.596;13.320;2023-03-13T04:51:15;7.80;99.90
16867;DHT22;8550;52.596;13.320;2023-03-13T04:56:21;7.70;99.90
16867;DHT22;8550;52.596;13.320;2023-03-13T05:01:24;7.80;99.90
16867;DHT22;8550;52.596;13.320;2023-03-13T05:06:26;7.80;99.90
16867;DHT22;8550;52.596;13.320;2023-03-13T05:11:28;7.90;99.90
16867;DHT22;8550;52.596;13.320;2023-03-13T05:16:32;7.80;99.90
16867;DHT22;8550;52.596;13.320;2023-03-13T05:21:34;7.70;99.90
16867;DHT22;8550;52.596;13.320;2023-03-13T05:26:36;7.80;99.90
16867;DHT22;8550;52.596;13.320;2023-03-13T05:31:40;7.80;99.90
16867;DHT22;8550;52.596;13.320;2023-03-13T05:36:42;7.90;99.90
16867;DHT22;8550;52.596;13.320;2023-03-13T05:41:44;7.90;99.90
16867;DHT22;8550;52.596;13.320;2023-03-13T05:46:47;7.90;99.90
16867;DHT22;8550;52.596;13.320;2023-03-13T05:51:49;7.90;99.90
16867;DHT22;8550;52.596;13.320;2023-03-13T05:56:51;7.90;99.90
16867;DHT22;8550;52.596;13.320;2023-03-13T06:01:55;8.00;99.90
16867;DHT22;8550;52.596;13.320;2023-03-13T06:06:57;8.00;99.90
16867;DHT22;8550;52.596;13.320;2023-03-13T06:11:59;8.00;99.90
16867;DHT22;8550;52.596;13.320;2023-03-13T06:17:02;8.00;99.90
16867;DHT22;8550;52.596;13.320;2023-03-13T06:22:04;7.90;99.90
16867;DHT22;8550;52.596;13.320;2023-03-13T06:27:08;8.00;99.90
16867;DHT22;8550;52.596;13.320;2023-03-13T06:32:11;8.10;99.90
16867;DHT22;8550;52.596;13.320;2023-03-13T06:37:13;8.00;99.90
16867;DHT22;8550;52.596;13.320;2023-03-13T06:42:15;8.00;99.90
16867;DHT22;8550;52.596;13.320;2023-03-13T06:47:18;8.00;99.90
16867;DHT22;8550;52.596;13.320;2023-03-13T06:52:20;8.10;99.90
16867;DHT22;8550;52.596;13.320;2023-03-13T06:57:48;8.20;99.90
16867;DHT22;8550;52.596;13.320;2023-03-13T07:02:51;8.20;99.90
16867;DHT22;8550;52.596;13.320;2023-03-13T07:07:53;8.20;99.90
16867;DHT22;8550;52.596;13.320;2023-03-13T07:12:55;8.20;99.90
16867;DHT22;8550;52.596;13.320;2023-03-13T07:18:22;8.40;99.90
16867;DHT22;8550;52.596;13.320;2023-03-13T07:23:25;8.30;99.90
16867;DHT22;8550;52.596;13.320;2023-03-13T07:28:40;8.40;99.90
16867;DHT22;8550;52.596;13.320;2023-03-13T07:33:52;8.40;99.90
16867;DHT22;8550;52.596;13.320;2023-03-13T07:38:57;8.40;99.90
16867;DHT22;8550;52.596;13.320;2023-03-13T07:44:00;8.50;99.90
16867;DHT22;8550;52.596;13.320;2023-03-13T07:49:05;8.60;99.90
16867;DHT22;8550;52.596;13.320;2023-03-13T07:54:14;8.60;99.90
16867;DHT22;8550;52.596;13.320;2023-03-13T07:59:16;8.70;99.90
16867;DHT22;8550;52.596;13.320;2023-03-13T08:04:19;8.70;99.90
16867;DHT22;8550;52.596;13.320;2023-03-13T08:09:23;8.80;99.90
16867;DHT22;8550;52.596;13.320;2023-03-13T08:14:25;8.80;99.90
16867;DHT22;8550;52.596;13.320;2023-03-13T08:19:31;8.80;99.90
16867;DHT22;8550;52.596;13.320;2023-03-13T08:24:37;8.80;99.90
16867;DHT22;8550;52.596;13.320;2023-03-13T08:29:40;8.80;99.90
16867;DHT22;8550;52.596;13.320;2023-03-13T08:34:49;8.90;99.90
16867;DHT22;8550;52.596;13.320;2023-03-13T08:39:52;8.90;99.90
16867;DHT22;8550;52.596;13.320;2023-03-13T08:44:57;8.90;99.90
16867;DHT22;8550;52.596;13.320;2023-03-13T08:50:07;8.90;99.90
16867;DHT22;8550;52.596;13.320;2023-03-13T08:55:09;9.00;99.90
16867;DHT22;8550;52.596;13.320;2023-03-13T09:00:18;9.00;99.90
16867;DHT22;8550;52.596;13.320;2023-03-13T09:05:25;9.10;99.90
16867;DHT22;8550;52.596;13.320;2023-03-13T09:10:27;9.20;99.90
16867;DHT22;8550;52.596;13.320;2023-03-13T09:15:28;9.30;99.90
16867;DHT22;8550;52.596;13.320;2023-03-13T09:20:32;9.40;99.90
16867;DHT22;8550;52.596;13.320;2023-03-13T09:25:36;9.50;99.90
16867;DHT22;8550;52.596;13.320;2023-03-13T09:30:38;9.60;99.90
16867;DHT22;8550;52.596;13.320;2023-03-13T09:35:41;9.60;99.90
16867;DHT22;8550;52.596;13.320;2023-03-13T09:40:48;9.60;99.90
16867;DHT22;8550;52.596;13.320;2023-03-13T09:45:52;9.60;99.90
16867;DHT22;8550;52.596;13.320;2023-03-13T09:51:00;9.70;99.90
16867;DHT22;8550;52.596;13.320;2023-03-13T09:56:08;9.70;99.90
16867;DHT22;8550;52.596;13.320;2023-03-13T10:01:16;9.80;99.90
16867;DHT22;8550;52.596;13.320;2023-03-13T10:06:24;9.80;99.90
16867;DHT22;8550;52.596;13.320;2023-03-13T10:11:31;9.90;99.90
16867;DHT22;8550;52.596;13.320;2023-03-13T10:16:39;10.00;99.90
16867;DHT22;8550;52.596;13.320;2023-03-13T10:21:46;10.10;99.90
16867;DHT22;8550;52.596;13.320;2023-03-13T10:26:48;10.20;99.90
16867;DHT22;8550;52.596;13.320;2023-03-13T10:31:55;10.40;99.90
16867;DHT22;8550;52.596;13.320;2023-03-13T10:37:01;10.50;99.90
16867;DHT22;8550;52.596;13.320;2023-03-13T10:42:09;10.60;99.90
16867;DHT22;8550;52.596;13.320;2023-03-13T10:47:13;10.80;99.90
16867;DHT22;8550;52.596;13.320;2023-03-13T10:52:30;11.20;99.90
16867;DHT22;8550;52.596;13.320;2023-03-13T10:57:33;11.50;99.90
16867;DHT22;8550;52.596;13.320;2023-03-13T11:02:37;11.70;99.90
16867;DHT22;8550;52.596;13.320;2023-03-13T11:07:41;11.70;99.90
16867;DHT22;8550;52.596;13.320;2023-03-13T11:12:46;12.40;99.90
16867;DHT22;8550;52.596;13.320;2023-03-13T11:17:51;13.20;99.90
16867;DHT22;8550;52.596;13.320;2023-03-13T11:23:08;13.50;99.90
16867;DHT22;8550;52.596;13.320;2023-03-13T11:28:25;13.20;99.90
16867;DHT22;8550;52.596;13.320;2023-03-13T11:33:36;13.20;99.90
16867;DHT22;8550;52.596;13.320;2023-03-13T11:38:42;13.10;99.90
16867;DHT22;8550;52.596;13.320;2023-03-13T11:43:53;13.20;99.90
16867;DHT22;8550;52.596;13.320;2023-03-13T11:49:29;13.10;99.90
16867;DHT22;8550;52.596;13.320;2023-03-13T12:00:17;13.20;99.90
16867;DHT22;8550;52.596;13.320;2023-03-13T12:05:22;13.50;99.90
16867;DHT22;8550;52.596;13.320;2023-03-13T12:10:31;13.60;99.90
16867;DHT22;8550;52.596;13.320;2023-03-13T12:15:36;13.90;99.90
16867;DHT22;8550;52.596;13.320;2023-03-13T12:20:41;14.20;99.90
16867;DHT22;8550;52.596;13.320;2023-03-13T12:25:51;14.20;99.90
16867;DHT22;8550;52.596;13.320;2023-03-13T12:31:01;14.00;99.90
16867;DHT22;8550;52.596;13.320;2023-03-13T12:36:08;14.00;99.90
16867;DHT22;8550;52.596;13.320;2023-03-13T12:41:22;14.30;99.90
16867;DHT22;8550;52.596;13.320;2023-03-13T12:46:36;14.50;99.90
16867;DHT22;8550;52.596;13.320;2023-03-13T12:51:49;14.60;99.90
16867;DHT22;8550;52.596;13.320;2023-03-13T12:57:09;15.60;99.90
16867;DHT22;8550;52.596;13.320;2023-03-13T13:02:16;16.10;99.90
16867;DHT22;8550;52.596;13.320;2023-03-13T13:07:22;16.10;99.90
16867;DHT22;8550;52.596;13.320;2023-03-13T13:12:27;16.30;99.90
16867;DHT22;8550;52.596;13.320;2023-03-13T13:17:48;16.20;99.90
16867;DHT22;8550;52.596;13.320;2023-03-13T13:22:53;17.00;99.90
16867;DHT22;8550;52.596;13.320;2023-03-13T13:28:11;17.80;99.90
16867;DHT22;8550;52.596;13.320;2023-03-13T13:33:38;18.60;99.90
16867;DHT22;8550;52.596;13.320;2023-03-13T13:38:41;17.80;99.90
16867;DHT22;8550;52.596;13.320;2023-03-13T13:43:46;17.70;99.90
16867;DHT22;8550;52.596;13.320;2023-03-13T13:49:06;18.00;99.90
16867;DHT22;8550;52.596;13.320;2023-03-13T13:54:30;18.60;99.90
16867;DHT22;8550;52.596;13.320;2023-03-13T13:59:40;18.40;99.90
16867;DHT22;8550;52.596;13.320;2023-03-13T14:04:46;17.40;99.90
16867;DHT22;8550;52.596;13.320;2023-03-13T14:09:59;17.30;99.90
16867;DHT22;8550;52.596;13.320;2023-03-13T14:15:14;17.90;99.90
16867;DHT22;8550;52.596;13.320;2023-03-13T14:20:26;18.30;99.90
16867;DHT22;8550;52.596;13.320;2023-03-13T14:25:41;18.40;99.90
16867;DHT22;8550;52.596;13.320;2023-03-13T14:30:45;18.60;99.90
16867;DHT22;8550;52.596;13.320;2023-03-13T14:35:48;19.20;99.90
16867;DHT22;8550;52.596;13.320;2023-03-13T14:40:52;18.30;99.90
16867;DHT22;8550;52.596;13.320;2023-03-13T14:45:56;18.10;99.90
16867;DHT22;8550;52.596;13.320;2023-03-13T14:51:09;18.50;99.90
16867;DHT22;8550;52.596;13.320;2023-03-13T14:56:14;17.90;99.90
16867;DHT22;8550;52.596;13.320;2023-03-13T15:01:25;17.90;99.90
16867;DHT22;8550;52.596;13.320;2023-03-13T15:06:30;18.20;99.90
16867;DHT22;8550;52.596;13.320;2023-03-13T15:11:32;18.10;99.90
16867;DHT22;8550;52.596;13.320;2023-03-13T15:16:35;17.70;99.90
16867;DHT22;8550;52.596;13.320;2023-03-13T15:21:38;18.60;99.90
16867;DHT22;8550;52.596;13.320;2023-03-13T15:26:40;19.10;99.90
16867;DHT22;8550;52.596;13.320;2023-03-13T15:31:44;19.40;99.90
16867;DHT22;8550;52.596;13.320;2023-03-13T15:36:46;19.00;99.90
16867;DHT22;8550;52.596;13.320;2023-03-13T15:41:48;18.10;99.90
16867;DHT22;8550;52.596;13.320;2023-03-13T15:46:51;17.10;99.90
16867;DHT22;8550;52.596;13.320;2023-03-13T15:51:53;16.60;99.90
16867;DHT22;8550;52.596;13.320;2023-03-13T15:56:55;16.20;99.90
16867;DHT22;8550;52.596;13.320;2023-03-13T16:01:59;16.10;99.90
16867;DHT22;8550;52.596;13.320;2023-03-13T16:07:01;15.90;99.90
16867;DHT22;8550;52.596;13.320;2023-03-13T16:12:03;15.90;99.90
16867;DHT22;8550;52.596;13.320;2023-03-13T16:17:13;15.90;99.90
16867;DHT22;8550;52.596;13.320;2023-03-13T16:22:16;15.90;99.90
16867;DHT22;8550;52.596;13.320;2023-03-13T16:27:18;15.80;99.90
16867;DHT22;8550;52.596;13.320;2023-03-13T16:32:22;16.00;99.90
16867;DHT22;8550;52.596;13.320;2023-03-13T16:37:25;15.90;99.90
16867;DHT22;8550;52.596;13.320;2023-03-13T16:42:27;15.80;99.90
16867;DHT22;8550;52.596;13.320;2023-03-13T16:47:30;15.70;99.90
16867;DHT22;8550;52.596;13.320;2023-03-13T16:52:32;15.60;99.90
16867;DHT22;8550;52.596;13.320;2023-03-13T16:57:35;15.70;99.90
16867;DHT22;8550;52.596;13.320;2023-03-13T17:02:38;15.60;99.90
16867;DHT22;8550;52.596;13.320;2023-03-13T17:07:41;15.60;99.90
16867;DHT22;8550;52.596;13.320;2023-03-13T17:12:44;15.60;99.90
16867;DHT22;8550;52.596;13.320;2023-03-13T17:17:48;15.50;99.90
16867;DHT22;8550;52.596;13.320;2023-03-13T17:22:52;15.30;99.90
16867;DHT22;8550;52.596;13.320;2023-03-13T17:27:55;15.10;99.90
16867;DHT22;8550;52.596;13.320;2023-03-13T17:32:59;15.00;99.90
16867;DHT22;8550;52.596;13.320;2023-03-13T17:38:00;15.00;99.90
16867;DHT22;8550;52.596;13.320;2023-03-13T17:43:02;14.90;99.90
16867;DHT22;8550;52.596;13.320;2023-03-13T17:48:09;14.80;99.90
16867;DHT22;8550;52.596;13.320;2023-03-13T17:53:12;14.80;99.90
16867;DHT22;8550;52.596;13.320;2023-03-13T17:58:14;14.80;99.90
16867;DHT22;8550;52.596;13.320;2023-03-13T18:03:17;14.70;99.90
16867;DHT22;8550;52.596;13.320;2023-03-13T18:08:19;14.60;99.90
16867;DHT22;8550;52.596;13.320;2023-03-13T18:13:22;14.60;99.90
16867;DHT22;8550;52.596;13.320;2023-03-13T18:18:26;14.60;99.90
16867;DHT22;8550;52.596;13.320;2023-03-13T18:23:29;14.70;99.90
16867;DHT22;8550;52.596;13.320;2023-03-13T18:28:31;14.60;99.90
16867;DHT22;8550;52.596;13.320;2023-03-13T18:33:34;14.50;99.90
16867;DHT22;8550;52.596;13.320;2023-03-13T18:38:36;14.50;99.90
16867;DHT22;8550;52.596;13.320;2023-03-13T18:43:38;14.50;99.90
16867;DHT22;8550;52.596;13.320;2023-03-13T18:48:42;14.60;99.90
16867;DHT22;8550;52.596;13.320;2023-03-13T18:53:44;14.50;99.90
16867;DHT22;8550;52.596;13.320;2023-03-13T18:58:47;14.50;99.90
16867;DHT22;8550;52.596;13.320;2023-03-13T19:03:51;14.60;99.90
16867;DHT22;8550;52.596;13.320;2023-03-13T19:08:54;14.60;99.90
16867;DHT22;8550;52.596;13.320;2023-03-13T19:13:57;14.70;99.90
16867;DHT22;8550;52.596;13.320;2023-03-13T19:19:01;14.70;99.90
16867;DHT22;8550;52.596;13.320;2023-03-13T19:24:04;14.70;99.90
16867;DHT22;8550;52.596;13.320;2023-03-13T19:29:11;14.70;99.90
16867;DHT22;8550;52.596;13.320;2023-03-13T19:34:15;14.60;99.90
16867;DHT22;8550;52.596;13.320;2023-03-13T19:39:19;14.60;99.90
16867;DHT22;8550;52.596;13.320;2023-03-13T19:44:23;14.60;99.90
16867;DHT22;8550;52.596;13.320;2023-03-13T19:49:27;14.60;99.90
16867;DHT22;8550;52.596;13.320;2023-03-13T19:54:29;14.60;99.90
16867;DHT22;8550;52.596;13.320;2023-03-13T19:59:31;14.50;99.90
16867;DHT22;8550;52.596;13.320;2023-03-13T20:04:36;14.30;99.90
16867;DHT22;8550;52.596;13.320;2023-03-13T20:09:40;14.20;99.90
16867;DHT22;8550;52.596;13.320;2023-03-13T20:14:42;14.10;99.90
16867;DHT22;8550;52.596;13.320;2023-03-13T20:19:45;14.10;99.90
16867;DHT22;8550;52.596;13.320;2023-03-13T20:24:47;14.00;99.90
16867;DHT22;8550;52.596;13.320;2023-03-13T20:29:49;13.90;99.90
16867;DHT22;8550;52.596;13.320;2023-03-13T20:34:53;13.80;99.90
16867;DHT22;8550;52.596;13.320;2023-03-13T20:39:55;13.70;99.90
16867;DHT22;8550;52.596;13.320;2023-03-13T20:44:57;13.70;99.90
16867;DHT22;8550;52.596;13.320;2023-03-13T20:50:00;13.70;99.90
16867;DHT22;8550;52.596;13.320;2023-03-13T20:55:03;13.80;99.90
16867;DHT22;8550;52.596;13.320;2023-03-13T21:00:06;13.70;99.90
16867;DHT22;8550;52.596;13.320;2023-03-13T21:05:10;13.60;99.90
16867;DHT22;8550;52.596;13.320;2023-03-13T21:10:12;13.50;99.90
16867;DHT22;8550;52.596;13.320;2023-03-13T21:15:15;13.60;99.90
16867;DHT22;8550;52.596;13.320;2023-03-13T21:20:18;13.50;99.90
16867;DHT22;8550;52.596;13.320;2023-03-13T21:25:21;13.50;99.90
16867;DHT22;8550;52.596;13.320;2023-03-13T21:30:23;13.50;99.90
16867;DHT22;8550;52.596;13.320;2023-03-13T21:35:26;13.40;99.90
16867;DHT22;8550;52.596;13.320;2023-03-13T21:40:28;13.40;99.90
16867;DHT22;8550;52.596;13.320;2023-03-13T21:45:30;13.60;99.90
16867;DHT22;8550;52.596;13.320;2023-03-13T21:50:35;13.50;99.90
16867;DHT22;8550;52.596;13.320;2023-03-13T21:55:37;13.50;99.90
16867;DHT22;8550;52.596;13.320;2023-03-13T22:00:40;13.50;99.90
16867;DHT22;8550;52.596;13.320;2023-03-13T22:05:43;13.50;99.90
16867;DHT22;8550;52.596;13.320;2023-03-13T22:10:49;13.60;99.90
16867;DHT22;8550;52.596;13.320;2023-03-13T22:15:51;13.60;99.90
16867;DHT22;8550;52.596;13.320;2023-03-13T22:20:57;13.60;99.90
16867;DHT22;8550;52.596;13.320;2023-03-13T22:25:59;13.60;99.90
16867;DHT22;8550;52.596;13.320;2023-03-13T22:31:01;13.60;99.90
16867;DHT22;8550;52.596;13.320;2023-03-13T22:36:06;13.60;99.90
16867;DHT22;8550;52.596;13.320;2023-03-13T22:41:11;13.60;99.90
16867;DHT22;8550;52.596;13.320;2023-03-13T22:46:14;13.50;99.90
16867;DHT22;8550;52.596;13.320;2023-03-13T22:51:17;13.50;99.90
16867;DHT22;8550;52.596;13.320;2023-03-13T22:56:19;13.40;99.90
16867;DHT22;8550;52.596;13.320;2023-03-13T23:01:21;13.30;99.90
16867;DHT22;8550;52.596;13.320;2023-03-13T23:06:25;13.40;99.90
16867;DHT22;8550;52.596;13.320;2023-03-13T23:11:27;13.40;99.90
16867;DHT22;8550;52.596;13.320;2023-03-13T23:16:30;13.20;99.90
16867;DHT22;8550;52.596;13.320;2023-03-13T23:21:33;13.20;99.90
16867;DHT22;8550;52.596;13.320;2023-03-13T23:26:35;13.10;99.90
16867;DHT22;8550;52.596;13.320;2023-03-13T23:31:38;13.20;99.90
16867;DHT22;8550;52.596;13.320;2023-03-13T23:36:41;13.10;99.90
16867;DHT22;8550;52.596;13.320;2023-03-13T23:41:43;13.00;99.90
16867;DHT22;8550;52.596;13.320;2023-03-13T23:46:45;12.90;99.90
16867;DHT22;8550;52.596;13.320;2023-03-13T23:51:49;12.80;99.90
16867;DHT22;8550;52.596;13.320;2023-03-13T23:56:51;12.60;99.90
